createdAt,value
2023-03-27T06:20:19.189Z,100.00
2023-03-27T06:30:19.196Z,100.00
2023-03-27T06:40:19.261Z,100.00
2023-03-27T06:50:19.328Z,100.00
2023-03-27T07:00:19.117Z,100.00
2023-03-27T07:10:19.140Z,100.00
2023-03-27T07:20:19.316Z,100.00
2023-03-27T07:30:19.498Z,100.00
2023-03-27T07:40:23.828Z,100.00
2023-03-27T07:50:19.582Z,100.00
2023-03-27T08:00:19.574Z,100.00
2023-03-27T08:10:19.639Z,100.00
2023-03-27T08:20:19.709Z,99.63
2023-03-27T08:30:19.861Z,97.33
2023-03-27T08:40:19.725Z,94.06
2023-03-27T08:50:19.931Z,95.03
2023-03-27T09:00:19.912Z,91.17
2023-03-27T09:10:20.025Z,87.88
2023-03-27T09:20:20.206Z,86.22
2023-03-27T09:30:20.482Z,86.39
2023-03-27T09:40:20.356Z,83.72
2023-03-27T09:50:20.404Z,100.00
2023-03-27T10:00:20.454Z,100.00
2023-03-27T10:10:20.427Z,100.00
2023-03-27T10:20:20.487Z,100.00
2023-03-27T10:30:20.461Z,100.00
2023-03-27T10:40:20.327Z,100.00
2023-03-27T10:50:20.315Z,100.00
2023-03-27T11:00:20.551Z,100.00
2023-03-27T11:10:20.412Z,100.00
2023-03-27T11:20:20.578Z,100.00
2023-03-27T11:30:20.422Z,100.00
2023-03-27T11:40:20.230Z,100.00
2023-03-27T11:50:20.351Z,100.00
2023-03-27T12:00:20.417Z,100.00
2023-03-27T12:10:25.385Z,100.00
2023-03-27T12:20:20.659Z,88.22
2023-03-27T12:30:20.508Z,83.32
2023-03-27T12:40:20.691Z,79.05
2023-03-27T12:50:20.689Z,100.00
2023-03-27T13:00:20.501Z,100.00
2023-03-27T13:10:20.570Z,100.00
2023-03-27T13:20:20.653Z,100.00
2023-03-27T13:30:21.962Z,100.00
2023-03-27T13:40:20.495Z,100.00
2023-03-27T13:50:20.837Z,100.00
2023-03-27T14:00:20.491Z,100.00
2023-03-27T14:10:20.560Z,100.00
2023-03-27T14:20:20.739Z,100.00
2023-03-27T14:30:20.691Z,100.00
2023-03-27T14:40:20.659Z,100.00
2023-03-27T14:50:20.624Z,100.00
2023-03-27T15:00:20.630Z,98.21
2023-03-27T15:10:20.704Z,100.00
2023-03-27T15:20:20.774Z,100.00
2023-03-27T15:30:20.561Z,100.00
2023-03-27T15:40:20.522Z,100.00
2023-03-27T15:50:20.522Z,100.00
2023-03-27T16:00:20.450Z,100.00
2023-03-27T16:10:20.619Z,100.00
2023-03-27T16:20:20.578Z,100.00
2023-03-27T16:30:20.542Z,100.00
2023-03-27T16:40:20.412Z,100.00
2023-03-27T16:50:20.572Z,94.64
2023-03-27T17:00:20.850Z,92.48
2023-03-27T17:10:20.819Z,91.24
2023-03-27T17:20:20.769Z,90.15
2023-03-27T17:30:34.601Z,90.06
2023-03-27T17:40:20.690Z,91.52
2023-03-27T17:50:20.765Z,88.90
2023-03-27T18:00:20.652Z,85.95
2023-03-27T18:10:20.894Z,85.50
2023-03-27T18:20:20.753Z,95.82
2023-03-27T18:30:20.706Z,100.00
2023-03-27T18:40:20.994Z,100.00
2023-03-27T18:50:21.050Z,100.00
2023-03-27T19:00:21.334Z,100.00
2023-03-27T19:10:21.279Z,100.00
2023-03-27T19:20:21.644Z,100.00
